createdAt,value
2023-04-11T00:00:17.910Z,980.11
2023-04-11T00:01:17.888Z,980.06
2023-04-11T00:02:17.921Z,980.03
2023-04-11T00:03:17.999Z,980.03
2023-04-11T00:04:18.007Z,979.91
2023-04-11T00:05:17.843Z,979.91
2023-04-11T00:06:17.832Z,979.83
2023-04-11T00:07:17.819Z,979.72
2023-04-11T00:08:17.804Z,979.68
2023-04-11T00:09:17.840Z,979.69
2023-04-11T00:10:17.783Z,979.68
2023-04-11T00:11:17.779Z,979.54
2023-04-11T00:12:17.757Z,979.68
2023-04-11T00:13:17.765Z,979.54
2023-04-11T00:14:17.763Z,979.50
2023-04-11T00:15:17.766Z,979.43
2023-04-11T00:16:17.823Z,979.40
2023-04-11T00:17:17.752Z,979.37
2023-04-11T00:18:17.699Z,979.34
2023-04-11T00:19:17.694Z,979.30
2023-04-11T00:20:17.684Z,979.27
2023-04-11T00:21:17.692Z,979.26
2023-04-11T00:22:17.659Z,979.31
2023-04-11T00:23:17.652Z,979.35
2023-04-11T00:24:17.633Z,979.37
2023-04-11T00:25:17.632Z,979.33
2023-04-11T00:26:17.635Z,979.31
2023-04-11T00:27:18.244Z,979.33
2023-04-11T00:28:17.596Z,979.28
2023-04-11T00:29:17.582Z,979.40
2023-04-11T00:30:17.596Z,979.37
2023-04-11T00:31:17.636Z,979.28
2023-04-11T00:32:17.568Z,979.36
2023-04-11T00:33:17.543Z,979.27
2023-04-11T00:34:17.529Z,979.30
2023-04-11T00:35:17.537Z,979.20
2023-04-11T00:36:17.626Z,979.16
2023-04-11T00:37:17.499Z,979.19
2023-04-11T00:38:17.607Z,979.23
2023-04-11T00:39:17.474Z,979.20
2023-04-11T00:40:17.496Z,979.30
2023-04-11T00:41:17.457Z,979.45
2023-04-11T00:42:17.442Z,979.46
2023-04-11T00:43:17.450Z,979.53
2023-04-11T00:44:17.433Z,979.41
2023-04-11T00:45:17.413Z,979.41
2023-04-11T00:46:17.488Z,979.31
2023-04-11T00:47:17.412Z,979.34
2023-04-11T00:48:17.389Z,979.29
2023-04-11T00:49:17.366Z,979.35
2023-04-11T00:50:17.382Z,979.27
2023-04-11T00:51:17.353Z,979.25
2023-04-11T00:52:17.342Z,979.26
2023-04-11T00:53:17.322Z,979.20
2023-04-11T00:54:17.323Z,979.17
2023-04-11T00:55:17.341Z,979.23
2023-04-11T00:56:17.298Z,979.13
2023-04-11T00:57:17.290Z,979.18
2023-04-11T00:58:17.289Z,979.18
2023-04-11T00:59:17.264Z,979.20
2023-04-11T01:00:17.273Z,979.20
2023-04-11T01:01:17.371Z,979.18
2023-04-11T01:02:17.275Z,979.16
2023-04-11T01:03:17.321Z,979.26
2023-04-11T01:04:17.240Z,979.20
2023-04-11T01:05:17.200Z,979.17
2023-04-11T01:06:17.192Z,979.16
2023-04-11T01:07:17.177Z,979.14
2023-04-11T01:08:17.163Z,979.23
2023-04-11T01:09:17.166Z,979.22
2023-04-11T01:10:17.145Z,979.18
2023-04-11T01:11:17.133Z,979.21
2023-04-11T01:12:17.148Z,979.26
2023-04-11T01:13:17.112Z,979.19
2023-04-11T01:14:17.107Z,979.27
2023-04-11T01:15:17.096Z,979.21
2023-04-11T01:16:17.117Z,979.18
2023-04-11T01:17:17.085Z,979.21
2023-04-11T01:18:17.071Z,979.28
2023-04-11T01:19:17.160Z,979.37
2023-04-11T01:20:17.048Z,979.39
2023-04-11T01:21:17.029Z,979.40
2023-04-11T01:22:17.018Z,979.41
2023-04-11T01:23:17.011Z,979.31
2023-04-11T01:24:17.006Z,979.29
2023-04-11T01:25:17.002Z,979.29
2023-04-11T01:26:16.978Z,979.27
2023-04-11T01:27:16.965Z,979.26
2023-04-11T01:28:16.961Z,979.32
2023-04-11T01:29:16.950Z,979.37
2023-04-11T01:30:16.970Z,979.44
2023-04-11T01:31:16.962Z,979.46
2023-04-11T01:32:16.934Z,979.51
2023-04-11T01:33:16.909Z,979.53
2023-04-11T01:34:16.909Z,979.56
2023-04-11T01:35:16.901Z,979.53
2023-04-11T01:36:16.881Z,979.55
2023-04-11T01:37:16.860Z,979.52
2023-04-11T01:38:16.863Z,979.49
2023-04-11T01:39:16.858Z,979.38
2023-04-11T01:40:16.838Z,979.38
2023-04-11T01:41:16.860Z,979.44
2023-04-11T01:42:16.815Z,979.62
2023-04-11T01:43:16.796Z,979.54
2023-04-11T01:44:16.827Z,979.44
2023-04-11T01:45:16.774Z,979.47
2023-04-11T01:46:16.773Z,979.36
2023-04-11T01:47:16.767Z,979.35
2023-04-11T01:48:16.845Z,979.31
2023-04-11T01:49:16.748Z,979.46
2023-04-11T01:50:16.729Z,979.52
2023-04-11T01:51:16.713Z,979.56
2023-04-11T01:52:16.724Z,979.62
2023-04-11T01:53:16.702Z,979.59
2023-04-11T01:54:16.682Z,979.61
2023-04-11T01:55:16.666Z,979.61
2023-04-11T01:56:16.672Z,979.70
2023-04-11T01:57:16.657Z,980.07
2023-04-11T01:58:16.670Z,979.87
2023-04-11T01:59:16.637Z,979.89
2023-04-11T02:00:16.622Z,979.79
2023-04-11T02:01:16.659Z,979.80
2023-04-11T02:02:16.989Z,979.78
2023-04-11T02:03:16.730Z,979.78
2023-04-11T02:04:16.649Z,979.86
2023-04-11T02:05:16.569Z,980.06
2023-04-11T02:06:16.554Z,980.04
2023-04-11T02:07:16.537Z,980.02
2023-04-11T02:08:16.537Z,980.04
2023-04-11T02:09:16.531Z,980.05
2023-04-11T02:10:16.512Z,980.22
2023-04-11T02:11:16.497Z,980.22
2023-04-11T02:12:16.494Z,980.19
2023-04-11T02:13:16.471Z,980.22
2023-04-11T02:14:16.470Z,980.22
2023-04-11T02:15:16.463Z,980.22
2023-04-11T02:16:16.508Z,980.22
2023-04-11T02:17:16.457Z,980.18
2023-04-11T02:18:16.425Z,980.41
2023-04-11T02:19:16.423Z,980.39
2023-04-11T02:20:16.423Z,980.28
2023-04-11T02:21:16.389Z,980.38
2023-04-11T02:22:16.385Z,980.43
2023-04-11T02:23:16.367Z,980.46
2023-04-11T02:24:16.399Z,980.49
2023-04-11T02:25:16.360Z,980.62
2023-04-11T02:26:16.366Z,980.55
2023-04-11T02:27:16.323Z,980.57
2023-04-11T02:28:16.322Z,980.50
2023-04-11T02:29:16.321Z,980.52
2023-04-11T02:30:16.305Z,980.56
2023-04-11T02:31:16.336Z,980.62
2023-04-11T02:32:16.533Z,980.69
2023-04-11T02:33:16.291Z,980.69
2023-04-11T02:34:16.257Z,980.65
2023-04-11T02:35:16.258Z,980.56
2023-04-11T02:36:16.300Z,980.49
2023-04-11T02:37:16.227Z,980.41
2023-04-11T02:38:16.222Z,980.35
2023-04-11T02:39:16.209Z,980.32
2023-04-11T02:40:16.205Z,980.28
2023-04-11T02:41:16.186Z,980.22
2023-04-11T02:42:16.186Z,980.19
2023-04-11T02:43:16.183Z,980.22
2023-04-11T02:44:16.156Z,980.38
2023-04-11T02:45:16.135Z,980.27
2023-04-11T02:46:16.147Z,980.27
2023-04-11T02:47:16.173Z,980.28
2023-04-11T02:48:16.117Z,980.29
2023-04-11T02:49:16.093Z,980.34
2023-04-11T02:50:16.088Z,980.38
2023-04-11T02:51:16.086Z,980.38
2023-04-11T02:52:16.070Z,980.35
2023-04-11T02:53:16.044Z,980.33
2023-04-11T02:54:16.056Z,980.32
2023-04-11T02:55:16.029Z,980.33
2023-04-11T02:56:16.038Z,980.27
2023-04-11T02:57:16.005Z,980.28
2023-04-11T02:58:16.014Z,980.32
2023-04-11T02:59:15.986Z,980.39
2023-04-11T03:00:15.976Z,980.39
2023-04-11T03:01:15.990Z,980.40
2023-04-11T03:02:16.038Z,980.41
2023-04-11T03:03:16.093Z,980.43
2023-04-11T03:04:15.981Z,980.45
2023-04-11T03:05:15.926Z,980.42
2023-04-11T03:06:15.911Z,980.37
2023-04-11T03:07:15.918Z,980.36
2023-04-11T03:08:16.852Z,980.36
2023-04-11T03:09:15.896Z,980.36
2023-04-11T03:10:15.879Z,980.30
2023-04-11T03:11:15.858Z,980.38
2023-04-11T03:12:15.868Z,980.39
2023-04-11T03:13:15.834Z,980.44
2023-04-11T03:14:15.828Z,980.42
2023-04-11T03:15:15.807Z,980.42
2023-04-11T03:16:15.907Z,980.44
2023-04-11T03:17:15.808Z,980.46
2023-04-11T03:18:15.790Z,980.47
2023-04-11T03:19:15.776Z,980.46
2023-04-11T03:20:15.783Z,980.41
2023-04-11T03:21:15.766Z,980.38
2023-04-11T03:22:15.743Z,980.42
2023-04-11T03:23:15.736Z,980.46
2023-04-11T03:24:15.744Z,980.47
2023-04-11T03:25:15.714Z,980.52
2023-04-11T03:26:15.711Z,980.58
2023-04-11T03:27:15.703Z,980.62
2023-04-11T03:28:15.687Z,980.59
2023-04-11T03:29:15.669Z,980.65
2023-04-11T03:30:15.664Z,980.69
2023-04-11T03:31:15.702Z,980.64
2023-04-11T03:32:15.639Z,980.48
2023-04-11T03:33:15.643Z,980.36
2023-04-11T03:34:15.621Z,980.32
2023-04-11T03:35:15.627Z,980.26
2023-04-11T03:36:15.614Z,980.31
2023-04-11T03:37:15.582Z,980.28
2023-04-11T03:38:15.596Z,980.35
2023-04-11T03:39:15.558Z,980.36
2023-04-11T03:40:15.564Z,980.31
2023-04-11T03:41:15.537Z,980.26
2023-04-11T03:42:15.548Z,980.30
2023-04-11T03:43:15.532Z,980.32
2023-04-11T03:44:15.625Z,980.29
2023-04-11T03:45:15.527Z,980.38
2023-04-11T03:46:15.549Z,980.41
2023-04-11T03:47:15.474Z,980.37
2023-04-11T03:48:15.481Z,980.39
2023-04-11T03:49:15.466Z,980.38
2023-04-11T03:50:15.456Z,980.30
2023-04-11T03:51:15.443Z,980.33
2023-04-11T03:52:15.425Z,980.36
2023-04-11T03:53:15.422Z,980.33
2023-04-11T03:54:15.404Z,980.34
2023-04-11T03:55:15.390Z,980.35
2023-04-11T03:56:15.381Z,980.29
2023-04-11T03:57:15.364Z,980.39
2023-04-11T03:58:15.376Z,980.39
2023-04-11T03:59:15.345Z,980.43
2023-04-11T04:00:15.340Z,980.51
2023-04-11T04:01:15.334Z,980.49
2023-04-11T04:02:15.391Z,980.53
2023-04-11T04:03:15.489Z,980.54
2023-04-11T04:04:15.410Z,980.61
2023-04-11T04:05:15.278Z,980.68
2023-04-11T04:06:15.287Z,980.67
2023-04-11T04:07:15.271Z,980.66
2023-04-11T04:08:15.249Z,980.62
2023-04-11T04:09:15.233Z,980.63
2023-04-11T04:10:15.229Z,980.61
2023-04-11T04:11:15.224Z,980.67
2023-04-11T04:12:15.221Z,980.64
2023-04-11T04:13:15.200Z,980.59
2023-04-11T04:14:15.186Z,980.67
2023-04-11T04:15:15.188Z,980.55
2023-04-11T04:16:15.182Z,980.66
2023-04-11T04:17:15.149Z,980.59
2023-04-11T04:18:15.139Z,980.68
2023-04-11T04:19:15.453Z,980.67
2023-04-11T04:20:15.356Z,980.68
2023-04-11T04:21:15.339Z,980.72
2023-04-11T04:22:15.113Z,980.77
2023-04-11T04:23:15.090Z,980.79
2023-04-11T04:24:15.092Z,980.80
2023-04-11T04:25:15.073Z,980.81
2023-04-11T04:26:15.077Z,980.73
2023-04-11T04:27:15.174Z,980.78
2023-04-11T04:28:15.036Z,980.71
2023-04-11T04:29:15.038Z,980.68
2023-04-11T04:30:15.015Z,980.72
2023-04-11T04:31:15.050Z,980.73
2023-04-11T04:32:14.995Z,980.89
2023-04-11T04:33:14.976Z,980.94
2023-04-11T04:34:14.985Z,980.93
2023-04-11T04:35:14.958Z,980.94
2023-04-11T04:36:14.950Z,981.01
2023-04-11T04:37:14.950Z,981.02
2023-04-11T04:38:14.997Z,980.99
2023-04-11T04:39:14.912Z,981.04
2023-04-11T04:40:14.920Z,981.13
2023-04-11T04:41:15.107Z,981.05
2023-04-11T04:42:14.892Z,981.04
2023-04-11T04:43:14.871Z,981.01
2023-04-11T04:44:15.222Z,981.17
2023-04-11T04:45:14.878Z,981.25
2023-04-11T04:46:14.977Z,981.23
2023-04-11T04:47:14.858Z,981.34
2023-04-11T04:48:14.863Z,981.35
2023-04-11T04:49:14.808Z,981.36
2023-04-11T04:50:14.813Z,981.41
2023-04-11T04:51:14.789Z,981.42
2023-04-11T04:52:14.821Z,981.37
2023-04-11T04:53:14.933Z,981.38
2023-04-11T04:54:14.834Z,981.38
2023-04-11T04:55:15.469Z,981.36
2023-04-11T04:56:14.757Z,981.37
2023-04-11T04:57:14.721Z,981.55
2023-04-11T04:58:15.438Z,981.56
2023-04-11T04:59:14.724Z,981.56
2023-04-11T05:00:14.710Z,981.66
2023-04-11T05:01:14.690Z,981.66
2023-04-11T05:02:14.737Z,981.72
2023-04-11T05:03:14.811Z,981.59
2023-04-11T05:04:14.705Z,981.63
2023-04-11T05:05:14.659Z,981.67
2023-04-11T05:06:14.634Z,981.75
2023-04-11T05:07:14.630Z,981.73
2023-04-11T05:08:14.613Z,981.70
2023-04-11T05:09:14.644Z,981.80
2023-04-11T05:10:14.590Z,981.80
2023-04-11T05:11:14.593Z,981.92
2023-04-11T05:12:14.577Z,981.94
2023-04-11T05:13:14.555Z,982.19
2023-04-11T05:14:14.581Z,981.95
2023-04-11T05:15:14.539Z,981.93
2023-04-11T05:16:15.273Z,981.88
2023-04-11T05:17:15.397Z,981.98
2023-04-11T05:18:15.290Z,982.11
2023-04-11T05:19:14.558Z,982.16
2023-04-11T05:20:14.572Z,982.13
2023-04-11T05:21:14.515Z,982.17
2023-04-11T05:22:15.193Z,982.00
2023-04-11T05:23:14.529Z,981.95
2023-04-11T05:24:15.172Z,982.10
2023-04-11T05:25:14.458Z,982.04
2023-04-11T05:26:14.598Z,981.96
2023-04-11T05:27:14.427Z,982.01
2023-04-11T05:28:14.436Z,981.97
2023-04-11T05:29:14.409Z,981.97
2023-04-11T05:30:14.419Z,982.01
2023-04-11T05:31:14.419Z,981.96
2023-04-11T05:32:14.418Z,981.90
2023-04-11T05:33:14.346Z,981.89
2023-04-11T05:34:14.325Z,981.89
2023-04-11T05:35:14.324Z,981.83
2023-04-11T05:36:14.484Z,981.96
2023-04-11T05:37:14.320Z,981.94
2023-04-11T05:38:14.290Z,981.96
2023-04-11T05:39:14.297Z,982.00
2023-04-11T05:40:14.280Z,981.91
2023-04-11T05:41:14.268Z,981.98
2023-04-11T05:42:14.249Z,981.93
2023-04-11T05:43:14.263Z,981.93
2023-04-11T05:44:14.226Z,981.94
2023-04-11T05:45:14.234Z,981.92
2023-04-11T05:46:14.260Z,981.93
2023-04-11T05:47:14.202Z,981.83
2023-04-11T05:48:15.925Z,982.01
2023-04-11T05:49:14.181Z,981.94
2023-04-11T05:50:15.047Z,981.87
2023-04-11T05:51:14.205Z,981.92
2023-04-11T05:52:14.150Z,981.93
2023-04-11T05:53:14.139Z,981.88
2023-04-11T05:54:14.126Z,981.86
2023-04-11T05:55:15.163Z,981.89
2023-04-11T05:56:14.099Z,981.89
2023-04-11T05:57:15.085Z,981.94
2023-04-11T05:58:14.113Z,982.00
2023-04-11T05:59:15.075Z,982.04
2023-04-11T06:00:14.095Z,981.95
2023-04-11T06:01:15.167Z,981.98
2023-04-11T06:02:14.139Z,982.01
2023-04-11T06:03:14.295Z,982.05
2023-04-11T06:04:14.160Z,982.04
2023-04-11T06:05:15.043Z,982.08
2023-04-11T06:06:14.030Z,982.11
2023-04-11T06:07:15.022Z,982.10
2023-04-11T06:08:14.033Z,982.10
2023-04-11T06:09:14.364Z,982.18
2023-04-11T06:10:13.990Z,982.11
2023-04-11T06:11:14.306Z,982.13
2023-04-11T06:12:13.951Z,982.15
2023-04-11T06:13:13.969Z,982.18
2023-04-11T06:14:13.938Z,982.13
2023-04-11T06:15:14.045Z,982.17
2023-04-11T06:16:13.918Z,982.09
2023-04-11T06:17:14.510Z,982.11
2023-04-11T06:18:13.890Z,982.12
2023-04-11T06:19:14.556Z,982.07
2023-04-11T06:20:13.862Z,982.15
2023-04-11T06:21:13.913Z,982.25
2023-04-11T06:22:13.841Z,982.26
2023-04-11T06:23:13.865Z,982.20
2023-04-11T06:24:13.813Z,982.10
2023-04-11T06:25:13.853Z,982.17
2023-04-11T06:26:13.840Z,982.14
2023-04-11T06:27:13.806Z,982.12
2023-04-11T06:28:13.758Z,982.24
2023-04-11T06:29:14.446Z,982.18
2023-04-11T06:30:13.749Z,982.33
2023-04-11T06:31:13.817Z,982.24
2023-04-11T06:32:13.745Z,982.16
2023-04-11T06:33:14.446Z,982.23
2023-04-11T06:34:13.761Z,982.34
2023-04-11T06:35:13.745Z,982.33
2023-04-11T06:36:13.762Z,982.34
2023-04-11T06:37:13.732Z,982.40
2023-04-11T06:38:13.689Z,982.43
2023-04-11T06:39:13.692Z,982.51
2023-04-11T06:40:13.738Z,982.42
2023-04-11T06:41:15.109Z,982.40
2023-04-11T06:42:13.632Z,982.43
2023-04-11T06:43:14.329Z,982.52
2023-04-11T06:44:13.633Z,982.58
2023-04-11T06:45:13.704Z,982.57
2023-04-11T06:46:13.677Z,982.68
2023-04-11T06:47:13.723Z,982.57
2023-04-11T06:48:13.572Z,982.59
2023-04-11T06:49:14.269Z,982.61
2023-04-11T06:50:13.544Z,982.65
2023-04-11T06:51:13.555Z,982.64
2023-04-11T06:52:13.558Z,982.69
2023-04-11T06:53:14.225Z,982.82
2023-04-11T06:54:13.494Z,982.70
2023-04-11T06:55:13.503Z,982.74
2023-04-11T06:56:13.495Z,982.67
2023-04-11T06:57:13.464Z,982.62
2023-04-11T06:58:13.459Z,982.65
2023-04-11T06:59:13.440Z,982.70
2023-04-11T07:00:13.452Z,982.80
2023-04-11T07:01:13.419Z,982.82
2023-04-11T07:02:13.470Z,982.78
2023-04-11T07:03:13.513Z,982.74
2023-04-11T07:04:13.604Z,982.71
2023-04-11T07:05:13.653Z,982.74
2023-04-11T07:06:13.681Z,982.73
2023-04-11T07:07:13.353Z,982.75
2023-04-11T07:08:13.664Z,982.82
2023-04-11T07:09:13.486Z,982.81
2023-04-11T07:10:14.629Z,982.86
2023-04-11T07:11:13.688Z,982.77
2023-04-11T07:12:13.293Z,982.88
2023-04-11T07:13:13.692Z,982.83
2023-04-11T07:14:14.000Z,982.82
2023-04-11T07:15:13.338Z,982.88
2023-04-11T07:16:14.007Z,982.87
2023-04-11T07:17:13.381Z,982.94
2023-04-11T07:18:13.643Z,983.05
2023-04-11T07:19:13.950Z,983.13
2023-04-11T07:20:14.009Z,983.11
2023-04-11T07:21:13.573Z,983.04
2023-04-11T07:22:13.355Z,983.04
2023-04-11T07:23:13.195Z,983.03
2023-04-11T07:24:14.192Z,983.10
2023-04-11T07:25:13.503Z,983.04
2023-04-11T07:26:13.484Z,983.08
2023-04-11T07:27:13.605Z,983.07
2023-04-11T07:28:13.844Z,983.09
2023-04-11T07:29:14.956Z,983.22
2023-04-11T07:30:13.455Z,983.19
2023-04-11T07:31:13.121Z,983.13
2023-04-11T07:32:13.100Z,983.24
2023-04-11T07:33:13.071Z,983.31
2023-04-11T07:34:13.071Z,983.24
2023-04-11T07:35:13.095Z,983.29
2023-04-11T07:36:13.082Z,983.21
2023-04-11T07:37:13.115Z,983.36
2023-04-11T07:38:13.012Z,983.10
2023-04-11T07:39:13.021Z,983.51
2023-04-11T07:40:12.995Z,983.47
2023-04-11T07:41:13.004Z,983.18
2023-04-11T07:42:12.975Z,983.10
2023-04-11T07:43:12.976Z,983.25
2023-04-11T07:44:12.952Z,983.24
2023-04-11T07:45:13.472Z,983.28
2023-04-11T07:46:13.260Z,983.19
2023-04-11T07:47:12.985Z,983.24
2023-04-11T07:48:13.916Z,983.18
2023-04-11T07:49:12.944Z,983.12
2023-04-11T07:50:13.586Z,983.18
2023-04-11T07:51:12.885Z,983.13
2023-04-11T07:52:14.312Z,983.23
2023-04-11T07:53:12.867Z,983.24
2023-04-11T07:54:12.862Z,983.22
2023-04-11T07:55:12.839Z,983.34
2023-04-11T07:56:12.845Z,983.29
2023-04-11T07:57:12.812Z,983.24
2023-04-11T07:58:12.799Z,983.32
2023-04-11T07:59:12.794Z,983.23
2023-04-11T08:00:12.780Z,983.12
2023-04-11T08:01:12.773Z,983.14
2023-04-11T08:02:12.819Z,983.13
2023-04-11T08:03:12.992Z,983.20
2023-04-11T08:04:12.886Z,983.25
2023-04-11T08:05:12.805Z,983.30
2023-04-11T08:06:12.716Z,983.34
2023-04-11T08:07:12.844Z,983.27
2023-04-11T08:08:12.857Z,983.29
2023-04-11T08:09:12.692Z,983.28
2023-04-11T08:10:12.688Z,983.20
2023-04-11T08:11:12.679Z,983.22
2023-04-11T08:12:12.675Z,983.23
2023-04-11T08:13:12.659Z,983.24
2023-04-11T08:14:12.642Z,983.26
2023-04-11T08:15:12.636Z,983.32
2023-04-11T08:16:12.646Z,983.25
2023-04-11T08:17:25.114Z,983.35
2023-04-11T08:18:13.605Z,983.26
2023-04-11T08:19:12.620Z,983.27
2023-04-11T08:20:12.564Z,983.55
2023-04-11T08:21:12.585Z,983.29
2023-04-11T08:22:12.558Z,983.26
2023-04-11T08:23:12.541Z,983.20
2023-04-11T08:24:12.533Z,983.26
2023-04-11T08:25:12.518Z,983.40
2023-04-11T08:26:12.507Z,983.48
2023-04-11T08:27:12.723Z,983.36
2023-04-11T08:28:12.485Z,983.49
2023-04-11T08:29:13.213Z,983.36
2023-04-11T08:30:12.477Z,983.46
2023-04-11T08:31:13.776Z,983.44
2023-04-11T08:32:12.467Z,983.53
2023-04-11T08:33:13.164Z,983.38
2023-04-11T08:34:12.454Z,983.42
2023-04-11T08:35:13.145Z,983.44
2023-04-11T08:36:12.477Z,983.46
2023-04-11T08:37:13.530Z,983.59
2023-04-11T08:38:12.397Z,983.49
2023-04-11T08:39:13.157Z,983.41
2023-04-11T08:40:12.382Z,983.40
2023-04-11T08:41:12.427Z,983.55
2023-04-11T08:42:12.353Z,983.54
2023-04-11T08:43:13.041Z,983.46
2023-04-11T08:44:12.510Z,983.67
2023-04-11T08:45:12.383Z,983.63
2023-04-11T08:46:12.322Z,983.64
2023-04-11T08:47:12.295Z,983.51
2023-04-11T08:48:12.674Z,983.53
2023-04-11T08:49:12.265Z,983.53
2023-04-11T08:50:12.338Z,983.61
2023-04-11T08:51:12.245Z,983.49
2023-04-11T08:52:12.240Z,983.46
2023-04-11T08:53:12.402Z,983.47
2023-04-11T08:54:12.252Z,983.44
2023-04-11T08:55:12.277Z,983.45
2023-04-11T08:56:12.262Z,983.60
2023-04-11T08:57:12.173Z,983.39
2023-04-11T08:58:12.332Z,983.43
2023-04-11T08:59:12.155Z,983.41
2023-04-11T09:00:12.151Z,983.50
2023-04-11T09:01:12.144Z,983.58
2023-04-11T09:02:12.317Z,983.47
2023-04-11T09:03:12.305Z,983.70
2023-04-11T09:04:12.099Z,983.54
2023-04-11T09:05:12.402Z,983.52
2023-04-11T09:06:12.529Z,983.50
2023-04-11T09:07:12.370Z,983.52
2023-04-11T09:08:12.329Z,983.43
2023-04-11T09:09:12.074Z,983.47
2023-04-11T09:10:12.108Z,983.50
2023-04-11T09:11:12.034Z,983.60
2023-04-11T09:12:12.896Z,983.50
2023-04-11T09:13:12.005Z,983.46
2023-04-11T09:14:11.998Z,983.51
2023-04-11T09:15:11.978Z,983.71
2023-04-11T09:16:12.233Z,983.63
2023-04-11T09:17:11.957Z,983.55
2023-04-11T09:18:12.032Z,983.57
2023-04-11T09:19:11.939Z,983.80
2023-04-11T09:20:12.187Z,983.53
2023-04-11T09:21:11.910Z,983.55
2023-04-11T09:22:11.960Z,983.51
2023-04-11T09:23:11.920Z,983.40
2023-04-11T09:24:12.012Z,983.32
2023-04-11T09:25:11.872Z,983.44
2023-04-11T09:26:11.913Z,983.45
2023-04-11T09:27:11.889Z,983.52
2023-04-11T09:28:11.888Z,983.38
2023-04-11T09:29:11.842Z,983.49
2023-04-11T09:30:11.965Z,983.43
2023-04-11T09:31:11.850Z,983.43
2023-04-11T09:32:11.827Z,983.43
2023-04-11T09:33:11.784Z,983.45
2023-04-11T09:34:11.791Z,983.65
2023-04-11T09:35:11.768Z,983.42
2023-04-11T09:36:11.837Z,983.49
2023-04-11T09:37:11.739Z,983.51
2023-04-11T09:38:11.733Z,983.51
2023-04-11T09:39:11.737Z,983.50
2023-04-11T09:40:11.718Z,983.47
2023-04-11T09:41:11.706Z,983.58
2023-04-11T09:42:11.693Z,983.74
2023-04-11T09:43:11.711Z,983.58
2023-04-11T09:44:11.673Z,983.52
2023-04-11T09:45:11.669Z,983.48
2023-04-11T09:46:11.665Z,983.62
2023-04-11T09:47:11.648Z,983.39
2023-04-11T09:48:11.664Z,983.44
2023-04-11T09:49:12.105Z,983.55
2023-04-11T09:50:11.629Z,983.51
2023-04-11T09:51:15.835Z,983.48
2023-04-11T09:52:12.626Z,983.41
2023-04-11T09:53:11.572Z,983.50
2023-04-11T09:54:11.565Z,983.44
2023-04-11T09:55:11.548Z,983.59
2023-04-11T09:56:11.582Z,983.32
2023-04-11T09:57:11.527Z,983.47
2023-04-11T09:58:11.561Z,983.88
2023-04-11T09:59:11.520Z,983.45
2023-04-11T10:00:11.505Z,983.45
2023-04-11T10:01:11.489Z,983.55
2023-04-11T10:02:11.571Z,983.42
2023-04-11T10:03:11.583Z,983.38
2023-04-11T10:04:11.534Z,983.43
2023-04-11T10:05:11.441Z,983.50
2023-04-11T10:06:11.448Z,983.46
2023-04-11T10:07:11.419Z,983.42
2023-04-11T10:08:11.435Z,983.54
2023-04-11T10:09:11.642Z,983.44
2023-04-11T10:10:11.406Z,983.43
2023-04-11T10:11:11.386Z,983.49
2023-04-11T10:12:11.369Z,983.42
2023-04-11T10:13:11.353Z,983.46
2023-04-11T10:14:11.356Z,983.48
2023-04-11T10:15:11.366Z,983.50
2023-04-11T10:16:11.380Z,983.53
2023-04-11T10:17:11.316Z,983.59
2023-04-11T10:18:11.440Z,983.56
2023-04-11T10:19:11.303Z,983.66
2023-04-11T10:20:11.284Z,983.42
2023-04-11T10:21:11.286Z,983.95
2023-04-11T10:22:11.307Z,983.78
2023-04-11T10:23:11.254Z,983.61
2023-04-11T10:24:12.275Z,983.67
2023-04-11T10:25:11.245Z,983.74
2023-04-11T10:26:11.222Z,983.62
2023-04-11T10:27:11.205Z,983.56
2023-04-11T10:28:11.202Z,983.47
2023-04-11T10:29:11.184Z,983.68
2023-04-11T10:30:11.177Z,983.52
2023-04-11T10:31:11.198Z,983.60
2023-04-11T10:32:11.156Z,983.66
2023-04-11T10:33:11.171Z,983.68
2023-04-11T10:34:11.134Z,983.65
2023-04-11T10:35:11.122Z,983.99
2023-04-11T10:36:11.305Z,983.55
2023-04-11T10:37:11.106Z,983.62
2023-04-11T10:38:11.121Z,983.90
2023-04-11T10:39:11.077Z,983.69
2023-04-11T10:40:11.080Z,983.80
2023-04-11T10:41:11.055Z,983.52
2023-04-11T10:42:11.054Z,983.73
2023-04-11T10:43:11.050Z,983.49
2023-04-11T10:44:11.029Z,983.52
2023-04-11T10:45:11.017Z,983.61
2023-04-11T10:46:11.011Z,983.53
2023-04-11T10:47:11.104Z,983.71
2023-04-11T10:48:10.989Z,983.51
2023-04-11T10:49:10.972Z,983.61
2023-04-11T10:50:10.970Z,983.67
2023-04-11T10:51:10.953Z,983.72
2023-04-11T10:52:10.950Z,983.68
2023-04-11T10:53:10.931Z,983.76
2023-04-11T10:54:10.939Z,983.68
2023-04-11T10:55:10.908Z,983.63
2023-04-11T10:56:10.904Z,983.64
2023-04-11T10:57:10.888Z,983.59
2023-04-11T10:58:10.887Z,983.77
2023-04-11T10:59:10.878Z,983.72
2023-04-11T11:00:10.884Z,983.75
2023-04-11T11:01:21.102Z,983.71
2023-04-11T11:02:11.891Z,983.66
2023-04-11T11:03:10.948Z,983.68
2023-04-11T11:04:11.174Z,983.54
2023-04-11T11:05:10.838Z,983.60
2023-04-11T11:06:10.790Z,983.52
2023-04-11T11:07:10.785Z,983.55
2023-04-11T11:08:10.772Z,983.61
2023-04-11T11:09:10.770Z,983.57
2023-04-11T11:10:10.749Z,983.66
2023-04-11T11:11:10.751Z,983.70
2023-04-11T11:12:10.723Z,983.72
2023-04-11T11:13:10.716Z,983.66
2023-04-11T11:14:10.721Z,983.70
2023-04-11T11:15:10.697Z,983.62
2023-04-11T11:16:10.712Z,983.77
2023-04-11T11:17:10.666Z,983.56
2023-04-11T11:18:10.678Z,983.64
2023-04-11T11:19:10.672Z,983.60
2023-04-11T11:20:10.649Z,983.60
2023-04-11T11:21:14.047Z,983.56
2023-04-11T11:22:11.633Z,983.62
2023-04-11T11:23:10.603Z,984.15
2023-04-11T11:24:10.598Z,983.61
2023-04-11T11:25:10.595Z,983.67
2023-04-11T11:26:10.579Z,983.45
2023-04-11T11:27:10.561Z,983.54
2023-04-11T11:28:10.559Z,983.60
2023-04-11T11:29:10.536Z,983.76
2023-04-11T11:30:10.536Z,983.74
2023-04-11T11:31:10.514Z,983.64
2023-04-11T11:32:10.578Z,983.54
2023-04-11T11:33:10.511Z,983.57
2023-04-11T11:35:10.480Z,983.51
2023-04-11T11:36:10.470Z,983.38
2023-04-11T11:37:10.458Z,983.59
2023-04-11T11:38:10.456Z,983.51
2023-04-11T11:39:10.435Z,983.56
2023-04-11T11:40:10.446Z,983.41
2023-04-11T11:41:10.407Z,983.39
2023-04-11T11:42:10.398Z,983.54
2023-04-11T11:43:10.383Z,983.51
2023-04-11T11:44:10.384Z,983.54
2023-04-11T11:45:10.402Z,983.45
2023-04-11T11:46:10.425Z,983.37
2023-04-11T11:47:10.373Z,983.41
2023-04-11T11:48:10.342Z,983.40
2023-04-11T11:49:10.340Z,983.35
2023-04-11T11:50:10.323Z,983.52
2023-04-11T11:51:10.308Z,983.36
2023-04-11T11:52:10.315Z,983.34
2023-04-11T11:53:10.335Z,983.34
2023-04-11T11:54:10.285Z,983.42
2023-04-11T11:55:11.429Z,983.47
2023-04-11T11:56:10.283Z,983.45
2023-04-11T11:57:10.297Z,983.44
2023-04-11T11:58:10.256Z,983.45
2023-04-11T11:59:10.255Z,983.62
2023-04-11T12:00:10.242Z,983.58
2023-04-11T12:01:10.205Z,983.49
2023-04-11T12:02:10.260Z,983.48
2023-04-11T12:03:10.392Z,983.44
2023-04-11T12:04:10.290Z,983.55
2023-04-11T12:05:10.237Z,983.41
2023-04-11T12:06:10.168Z,983.49
2023-04-11T12:07:10.143Z,983.49
2023-04-11T12:08:10.130Z,983.53
2023-04-11T12:09:10.111Z,983.55
2023-04-11T12:10:10.116Z,983.70
2023-04-11T12:11:10.109Z,983.54
2023-04-11T12:12:10.089Z,983.59
2023-04-11T12:13:10.078Z,983.64
2023-04-11T12:14:10.073Z,983.52
2023-04-11T12:15:10.063Z,983.58
2023-04-11T12:16:10.109Z,983.69
2023-04-11T12:17:10.060Z,983.58
2023-04-11T12:18:10.071Z,983.55
2023-04-11T12:19:10.017Z,983.61
2023-04-11T12:20:10.025Z,983.52
2023-04-11T12:21:09.993Z,983.58
2023-04-11T12:22:10.006Z,983.59
2023-04-11T12:23:09.960Z,983.60
2023-04-11T12:24:09.970Z,983.52
2023-04-11T12:25:09.957Z,983.52
2023-04-11T12:26:09.937Z,983.56
2023-04-11T12:27:10.770Z,983.54
2023-04-11T12:28:09.959Z,983.48
2023-04-11T12:29:09.902Z,983.61